Terminal Aerodrome Forecast
Issued by NWS

Home | Current Version | Previous Version | Text Only | Print | Product List | Glossary On
Versions: 1 2 3 4 5 6 7 8 9 10 11 12 13 14 15 16 17 18 19 20
000
FTUS43 KMQT 251120
TAFCMX
TAF
KCMX 251120Z 2512/2612 13009KT P6SM BKN090 WS010/18035KT
     FM251500 15008KT P6SM BKN120
     FM252000 08004KT P6SM BKN100
     FM260000 02008KT P6SM OVC040
     FM260100 02008KT P6SM VCSH OVC025
     FM260300 01008KT 5SM -SHRA OVC010
     FM260500 02009KT 4SM -RA OVC008
     FM261100 04012G24KT 4SM -RA OVC008=

USA.gov is the U.S. government's official web portal to all federal, state and local government web resources and services.